sensor_id;sensor_type;location;lat;lon;timestamp;P1;durP1;ratioP1;P2;durP2;ratioP2
20928;SDS011;21895;47.072;15.132;2023-02-21T00:02:38;7.40;;;3.30;;
20928;SDS011;21895;47.072;15.132;2023-02-21T00:05:23;6.70;;;2.77;;
20928;SDS011;21895;47.072;15.132;2023-02-21T00:08:08;7.27;;;2.97;;
20928;SDS011;21895;47.072;15.132;2023-02-21T00:10:53;5.97;;;2.63;;
20928;SDS011;21895;47.072;15.132;2023-02-21T00:13:38;6.63;;;2.90;;
20928;SDS011;21895;47.072;15.132;2023-02-21T00:16:23;5.50;;;2.83;;
20928;SDS011;21895;47.072;15.132;2023-02-21T00:19:08;4.53;;;2.80;;
20928;SDS011;21895;47.072;15.132;2023-02-21T00:21:53;5.90;;;2.27;;
20928;SDS011;21895;47.072;15.132;2023-02-21T00:24:38;5.73;;;2.27;;
20928;SDS011;21895;47.072;15.132;2023-02-21T00:27:23;6.73;;;2.17;;
20928;SDS011;21895;47.072;15.132;2023-02-21T00:30:09;11.10;;;2.60;;
20928;SDS011;21895;47.072;15.132;2023-02-21T00:32:55;13.53;;;2.97;;
20928;SDS011;21895;47.072;15.132;2023-02-21T00:35:40;6.10;;;2.97;;
20928;SDS011;21895;47.072;15.132;2023-02-21T00:38:25;7.03;;;2.80;;
20928;SDS011;21895;47.072;15.132;2023-02-21T00:41:09;11.97;;;3.20;;
20928;SDS011;21895;47.072;15.132;2023-02-21T00:43:55;6.67;;;2.80;;
20928;SDS011;21895;47.072;15.132;2023-02-21T00:46:39;13.93;;;2.80;;
20928;SDS011;21895;47.072;15.132;2023-02-21T00:49:24;6.67;;;2.50;;
20928;SDS011;21895;47.072;15.132;2023-02-21T00:52:09;6.03;;;2.90;;
20928;SDS011;21895;47.072;15.132;2023-02-21T00:54:54;5.53;;;2.77;;
20928;SDS011;21895;47.072;15.132;2023-02-21T00:57:39;13.30;;;2.87;;
20928;SDS011;21895;47.072;15.132;2023-02-21T01:00:24;9.13;;;2.13;;
20928;SDS011;21895;47.072;15.132;2023-02-21T01:03:10;6.73;;;2.77;;
20928;SDS011;21895;47.072;15.132;2023-02-21T01:05:55;6.97;;;2.87;;
20928;SDS011;21895;47.072;15.132;2023-02-21T01:08:41;7.90;;;2.10;;
20928;SDS011;21895;47.072;15.132;2023-02-21T01:11:27;4.00;;;2.20;;
20928;SDS011;21895;47.072;15.132;2023-02-21T01:14:12;5.53;;;2.40;;
20928;SDS011;21895;47.072;15.132;2023-02-21T01:16:58;7.33;;;2.80;;
20928;SDS011;21895;47.072;15.132;2023-02-21T01:19:43;10.93;;;2.60;;
20928;SDS011;21895;47.072;15.132;2023-02-21T01:22:28;15.93;;;3.03;;
20928;SDS011;21895;47.072;15.132;2023-02-21T01:25:13;10.10;;;2.63;;
20928;SDS011;21895;47.072;15.132;2023-02-21T01:27:58;5.40;;;2.37;;
20928;SDS011;21895;47.072;15.132;2023-02-21T01:30:43;5.47;;;2.37;;
20928;SDS011;21895;47.072;15.132;2023-02-21T01:33:28;5.03;;;2.43;;
20928;SDS011;21895;47.072;15.132;2023-02-21T01:36:18;13.23;;;2.30;;
20928;SDS011;21895;47.072;15.132;2023-02-21T01:39:02;9.13;;;2.20;;
20928;SDS011;21895;47.072;15.132;2023-02-21T01:41:47;4.60;;;1.90;;
20928;SDS011;21895;47.072;15.132;2023-02-21T01:44:39;4.53;;;2.40;;
20928;SDS011;21895;47.072;15.132;2023-02-21T01:47:27;4.70;;;2.60;;
20928;SDS011;21895;47.072;15.132;2023-02-21T01:50:23;4.37;;;2.33;;
20928;SDS011;21895;47.072;15.132;2023-02-21T01:53:14;7.73;;;2.37;;
20928;SDS011;21895;47.072;15.132;2023-02-21T01:56:05;6.17;;;1.97;;
20928;SDS011;21895;47.072;15.132;2023-02-21T01:58:52;6.27;;;2.67;;
20928;SDS011;21895;47.072;15.132;2023-02-21T02:01:45;4.47;;;2.20;;
20928;SDS011;21895;47.072;15.132;2023-02-21T02:04:52;7.10;;;2.07;;
20928;SDS011;21895;47.072;15.132;2023-02-21T02:07:39;4.37;;;2.07;;
20928;SDS011;21895;47.072;15.132;2023-02-21T02:10:24;5.43;;;2.33;;
20928;SDS011;21895;47.072;15.132;2023-02-21T02:35:02;3.77;;;1.80;;
20928;SDS011;21895;47.072;15.132;2023-02-21T02:38:14;4.83;;;1.90;;
20928;SDS011;21895;47.072;15.132;2023-02-21T02:41:07;4.23;;;1.90;;
20928;SDS011;21895;47.072;15.132;2023-02-21T02:43:53;5.50;;;2.20;;
20928;SDS011;21895;47.072;15.132;2023-02-21T02:46:40;3.80;;;1.80;;
20928;SDS011;21895;47.072;15.132;2023-02-21T02:49:13;5.97;;;1.97;;
20928;SDS011;21895;47.072;15.132;2023-02-21T02:51:54;4.10;;;1.90;;
20928;SDS011;21895;47.072;15.132;2023-02-21T02:54:29;5.17;;;1.70;;
20928;SDS011;21895;47.072;15.132;2023-02-21T02:56:55;4.20;;;1.63;;
20928;SDS011;21895;47.072;15.132;2023-02-21T02:59:24;4.10;;;1.93;;
20928;SDS011;21895;47.072;15.132;2023-02-21T03:02:00;3.87;;;1.80;;
20928;SDS011;21895;47.072;15.132;2023-02-21T03:08:46;4.80;;;1.77;;
20928;SDS011;21895;47.072;15.132;2023-02-21T03:11:36;6.13;;;1.90;;
20928;SDS011;21895;47.072;15.132;2023-02-21T03:14:21;4.83;;;2.20;;
20928;SDS011;21895;47.072;15.132;2023-02-21T03:16:56;3.27;;;1.70;;
20928;SDS011;21895;47.072;15.132;2023-02-21T03:19:34;3.63;;;1.77;;
20928;SDS011;21895;47.072;15.132;2023-02-21T03:22:12;3.03;;;1.80;;
20928;SDS011;21895;47.072;15.132;2023-02-21T03:24:44;4.03;;;1.80;;
20928;SDS011;21895;47.072;15.132;2023-02-21T03:27:13;6.00;;;1.80;;
20928;SDS011;21895;47.072;15.132;2023-02-21T03:29:42;4.03;;;1.60;;
20928;SDS011;21895;47.072;15.132;2023-02-21T03:32:10;4.20;;;1.73;;
20928;SDS011;21895;47.072;15.132;2023-02-21T03:35:05;3.10;;;1.67;;
20928;SDS011;21895;47.072;15.132;2023-02-21T03:37:45;4.00;;;1.80;;
20928;SDS011;21895;47.072;15.132;2023-02-21T03:40:19;3.60;;;1.70;;
20928;SDS011;21895;47.072;15.132;2023-02-21T03:42:54;4.93;;;2.00;;
20928;SDS011;21895;47.072;15.132;2023-02-21T03:45:23;37.17;;;2.73;;
20928;SDS011;21895;47.072;15.132;2023-02-21T03:47:50;8.30;;;1.50;;
20928;SDS011;21895;47.072;15.132;2023-02-21T03:50:16;4.27;;;1.50;;
20928;SDS011;21895;47.072;15.132;2023-02-21T03:52:43;3.83;;;1.73;;
20928;SDS011;21895;47.072;15.132;2023-02-21T03:55:10;2.50;;;1.50;;
20928;SDS011;21895;47.072;15.132;2023-02-21T03:57:36;4.53;;;1.63;;
20928;SDS011;21895;47.072;15.132;2023-02-21T04:00:03;4.57;;;1.50;;
20928;SDS011;21895;47.072;15.132;2023-02-21T04:02:31;4.67;;;1.57;;
20928;SDS011;21895;47.072;15.132;2023-02-21T04:04:57;7.77;;;1.80;;
20928;SDS011;21895;47.072;15.132;2023-02-21T04:07:24;3.87;;;1.70;;
20928;SDS011;21895;47.072;15.132;2023-02-21T04:09:51;3.50;;;1.57;;
20928;SDS011;21895;47.072;15.132;2023-02-21T04:12:20;4.53;;;1.60;;
20928;SDS011;21895;47.072;15.132;2023-02-21T04:14:47;4.80;;;1.93;;
20928;SDS011;21895;47.072;15.132;2023-02-21T04:17:13;7.67;;;1.87;;
20928;SDS011;21895;47.072;15.132;2023-02-21T04:19:40;5.27;;;1.87;;
20928;SDS011;21895;47.072;15.132;2023-02-21T04:22:07;2.63;;;1.70;;
20928;SDS011;21895;47.072;15.132;2023-02-21T04:24:33;3.03;;;1.20;;
20928;SDS011;21895;47.072;15.132;2023-02-21T04:27:00;4.60;;;1.63;;
20928;SDS011;21895;47.072;15.132;2023-02-21T04:29:26;3.07;;;1.70;;
20928;SDS011;21895;47.072;15.132;2023-02-21T04:31:53;6.77;;;2.10;;
20928;SDS011;21895;47.072;15.132;2023-02-21T04:34:20;3.03;;;1.73;;
20928;SDS011;21895;47.072;15.132;2023-02-21T04:36:47;5.07;;;1.40;;
20928;SDS011;21895;47.072;15.132;2023-02-21T04:39:13;4.57;;;1.70;;
20928;SDS011;21895;47.072;15.132;2023-02-21T04:41:40;4.23;;;1.53;;
20928;SDS011;21895;47.072;15.132;2023-02-21T04:44:07;5.93;;;1.70;;
20928;SDS011;21895;47.072;15.132;2023-02-21T04:46:34;3.93;;;1.17;;
20928;SDS011;21895;47.072;15.132;2023-02-21T04:49:01;7.60;;;1.93;;
20928;SDS011;21895;47.072;15.132;2023-02-21T04:51:27;15.17;;;1.70;;
20928;SDS011;21895;47.072;15.132;2023-02-21T04:53:54;7.37;;;1.60;;
20928;SDS011;21895;47.072;15.132;2023-02-21T04:56:22;11.07;;;2.30;;
20928;SDS011;21895;47.072;15.132;2023-02-21T04:58:51;16.53;;;2.60;;
20928;SDS011;21895;47.072;15.132;2023-02-21T05:01:18;1.80;;;1.07;;
20928;SDS011;21895;47.072;15.132;2023-02-21T05:03:46;2.23;;;1.50;;
20928;SDS011;21895;47.072;15.132;2023-02-21T05:06:17;3.83;;;1.53;;
20928;SDS011;21895;47.072;15.132;2023-02-21T05:08:51;3.23;;;1.37;;
20928;SDS011;21895;47.072;15.132;2023-02-21T05:11:18;6.63;;;1.33;;
20928;SDS011;21895;47.072;15.132;2023-02-21T05:13:46;6.37;;;1.73;;
20928;SDS011;21895;47.072;15.132;2023-02-21T05:16:13;2.43;;;1.60;;
20928;SDS011;21895;47.072;15.132;2023-02-21T05:18:41;3.67;;;1.47;;
20928;SDS011;21895;47.072;15.132;2023-02-21T05:21:09;3.03;;;1.40;;
20928;SDS011;21895;47.072;15.132;2023-02-21T05:23:35;4.33;;;1.63;;
20928;SDS011;21895;47.072;15.132;2023-02-21T05:28:39;9.70;;;3.47;;
20928;SDS011;21895;47.072;15.132;2023-02-21T05:31:06;3.43;;;1.60;;
20928;SDS011;21895;47.072;15.132;2023-02-21T05:33:33;3.63;;;1.43;;
20928;SDS011;21895;47.072;15.132;2023-02-21T05:35:59;5.43;;;2.07;;
20928;SDS011;21895;47.072;15.132;2023-02-21T05:38:27;3.00;;;1.87;;
20928;SDS011;21895;47.072;15.132;2023-02-21T05:40:53;3.87;;;1.60;;
20928;SDS011;21895;47.072;15.132;2023-02-21T05:43:19;3.23;;;1.60;;
20928;SDS011;21895;47.072;15.132;2023-02-21T05:45:46;9.27;;;1.67;;
20928;SDS011;21895;47.072;15.132;2023-02-21T05:48:13;8.83;;;1.77;;
20928;SDS011;21895;47.072;15.132;2023-02-21T05:50:39;5.47;;;1.90;;
20928;SDS011;21895;47.072;15.132;2023-02-21T05:53:06;2.97;;;1.60;;
20928;SDS011;21895;47.072;15.132;2023-02-21T05:55:34;2.03;;;1.63;;
20928;SDS011;21895;47.072;15.132;2023-02-21T05:58:01;6.10;;;1.40;;
20928;SDS011;21895;47.072;15.132;2023-02-21T06:00:28;8.30;;;2.43;;
20928;SDS011;21895;47.072;15.132;2023-02-21T06:02:56;5.33;;;1.70;;
20928;SDS011;21895;47.072;15.132;2023-02-21T06:05:23;5.43;;;1.83;;
20928;SDS011;21895;47.072;15.132;2023-02-21T06:07:50;14.10;;;2.30;;
20928;SDS011;21895;47.072;15.132;2023-02-21T06:10:17;3.80;;;1.50;;
20928;SDS011;21895;47.072;15.132;2023-02-21T06:12:44;3.57;;;1.53;;
20928;SDS011;21895;47.072;15.132;2023-02-21T06:15:11;4.73;;;1.80;;
20928;SDS011;21895;47.072;15.132;2023-02-21T06:17:38;6.23;;;1.80;;
20928;SDS011;21895;47.072;15.132;2023-02-21T06:20:07;4.57;;;1.93;;
20928;SDS011;21895;47.072;15.132;2023-02-21T06:22:39;8.40;;;1.83;;
20928;SDS011;21895;47.072;15.132;2023-02-21T06:25:06;41.53;;;9.20;;
20928;SDS011;21895;47.072;15.132;2023-02-21T06:27:33;29.40;;;7.77;;
20928;SDS011;21895;47.072;15.132;2023-02-21T06:30:00;10.83;;;2.53;;
20928;SDS011;21895;47.072;15.132;2023-02-21T06:32:29;5.77;;;1.70;;
20928;SDS011;21895;47.072;15.132;2023-02-21T06:34:56;2.70;;;1.63;;
20928;SDS011;21895;47.072;15.132;2023-02-21T06:37:22;36.40;;;8.60;;
20928;SDS011;21895;47.072;15.132;2023-02-21T06:39:49;8.30;;;3.47;;
20928;SDS011;21895;47.072;15.132;2023-02-21T06:42:16;4.63;;;2.10;;
20928;SDS011;21895;47.072;15.132;2023-02-21T06:44:43;2.90;;;1.40;;
20928;SDS011;21895;47.072;15.132;2023-02-21T06:47:12;3.83;;;2.00;;
20928;SDS011;21895;47.072;15.132;2023-02-21T06:49:39;7.90;;;1.80;;
20928;SDS011;21895;47.072;15.132;2023-02-21T06:52:06;4.50;;;1.80;;
20928;SDS011;21895;47.072;15.132;2023-02-21T06:54:34;3.20;;;1.83;;
20928;SDS011;21895;47.072;15.132;2023-02-21T06:57:00;3.60;;;1.90;;
20928;SDS011;21895;47.072;15.132;2023-02-21T06:59:27;4.57;;;2.23;;
20928;SDS011;21895;47.072;15.132;2023-02-21T07:01:54;9.50;;;2.10;;
20928;SDS011;21895;47.072;15.132;2023-02-21T07:04:22;7.70;;;2.33;;
20928;SDS011;21895;47.072;15.132;2023-02-21T07:06:49;8.10;;;1.83;;
20928;SDS011;21895;47.072;15.132;2023-02-21T07:09:16;14.97;;;3.13;;
20928;SDS011;21895;47.072;15.132;2023-02-21T07:11:43;10.73;;;3.30;;
20928;SDS011;21895;47.072;15.132;2023-02-21T07:14:11;8.30;;;3.57;;
20928;SDS011;21895;47.072;15.132;2023-02-21T07:16:38;10.70;;;3.80;;
20928;SDS011;21895;47.072;15.132;2023-02-21T07:19:05;11.37;;;3.90;;
20928;SDS011;21895;47.072;15.132;2023-02-21T07:21:31;23.90;;;5.20;;
20928;SDS011;21895;47.072;15.132;2023-02-21T07:23:58;29.07;;;7.23;;
20928;SDS011;21895;47.072;15.132;2023-02-21T07:26:24;19.47;;;5.40;;
20928;SDS011;21895;47.072;15.132;2023-02-21T07:28:51;26.00;;;6.87;;
20928;SDS011;21895;47.072;15.132;2023-02-21T07:31:17;18.23;;;6.80;;
20928;SDS011;21895;47.072;15.132;2023-02-21T07:33:45;43.80;;;7.03;;
20928;SDS011;21895;47.072;15.132;2023-02-21T07:36:12;30.00;;;7.10;;
20928;SDS011;21895;47.072;15.132;2023-02-21T07:38:38;26.20;;;6.67;;
20928;SDS011;21895;47.072;15.132;2023-02-21T07:41:05;24.20;;;6.73;;
20928;SDS011;21895;47.072;15.132;2023-02-21T07:43:31;15.17;;;6.20;;
20928;SDS011;21895;47.072;15.132;2023-02-21T07:45:58;26.17;;;6.30;;
20928;SDS011;21895;47.072;15.132;2023-02-21T07:48:25;29.23;;;6.60;;
20928;SDS011;21895;47.072;15.132;2023-02-21T07:50:54;26.07;;;6.37;;
20928;SDS011;21895;47.072;15.132;2023-02-21T07:53:21;29.17;;;6.27;;
20928;SDS011;21895;47.072;15.132;2023-02-21T07:55:47;21.23;;;6.23;;
20928;SDS011;21895;47.072;15.132;2023-02-21T07:58:14;20.47;;;6.50;;
20928;SDS011;21895;47.072;15.132;2023-02-21T08:00:40;17.53;;;5.50;;
20928;SDS011;21895;47.072;15.132;2023-02-21T08:03:08;27.37;;;6.40;;
20928;SDS011;21895;47.072;15.132;2023-02-21T08:05:38;22.63;;;6.27;;
20928;SDS011;21895;47.072;15.132;2023-02-21T08:08:06;18.33;;;6.10;;
20928;SDS011;21895;47.072;15.132;2023-02-21T08:10:34;20.80;;;5.33;;
20928;SDS011;21895;47.072;15.132;2023-02-21T08:13:01;18.83;;;4.63;;
20928;SDS011;21895;47.072;15.132;2023-02-21T08:15:27;21.73;;;4.70;;
20928;SDS011;21895;47.072;15.132;2023-02-21T08:17:54;21.30;;;4.60;;
20928;SDS011;21895;47.072;15.132;2023-02-21T08:20:21;15.03;;;3.70;;
20928;SDS011;21895;47.072;15.132;2023-02-21T08:22:47;14.03;;;4.90;;
20928;SDS011;21895;47.072;15.132;2023-02-21T08:25:14;13.23;;;4.60;;
20928;SDS011;21895;47.072;15.132;2023-02-21T08:27:42;23.00;;;3.93;;
20928;SDS011;21895;47.072;15.132;2023-02-21T08:30:10;25.37;;;4.20;;
20928;SDS011;21895;47.072;15.132;2023-02-21T08:32:39;18.60;;;4.00;;
20928;SDS011;21895;47.072;15.132;2023-02-21T08:35:06;17.33;;;4.23;;
20928;SDS011;21895;47.072;15.132;2023-02-21T08:37:33;9.90;;;3.97;;
20928;SDS011;21895;47.072;15.132;2023-02-21T08:40:01;11.30;;;4.47;;
20928;SDS011;21895;47.072;15.132;2023-02-21T08:42:28;26.10;;;4.60;;
20928;SDS011;21895;47.072;15.132;2023-02-21T08:44:55;17.37;;;4.43;;
20928;SDS011;21895;47.072;15.132;2023-02-21T08:47:22;11.17;;;3.80;;
20928;SDS011;21895;47.072;15.132;2023-02-21T08:49:48;21.13;;;5.17;;
20928;SDS011;21895;47.072;15.132;2023-02-21T08:52:15;20.03;;;4.93;;
20928;SDS011;21895;47.072;15.132;2023-02-21T08:54:45;18.77;;;4.17;;
20928;SDS011;21895;47.072;15.132;2023-02-21T08:57:12;18.53;;;4.27;;
20928;SDS011;21895;47.072;15.132;2023-02-21T08:59:42;13.03;;;4.00;;
20928;SDS011;21895;47.072;15.132;2023-02-21T09:02:15;18.73;;;3.73;;
20928;SDS011;21895;47.072;15.132;2023-02-21T09:04:46;25.97;;;4.17;;
20928;SDS011;21895;47.072;15.132;2023-02-21T09:07:13;8.60;;;3.57;;
20928;SDS011;21895;47.072;15.132;2023-02-21T09:09:43;18.10;;;3.60;;
20928;SDS011;21895;47.072;15.132;2023-02-21T09:12:10;11.50;;;3.60;;
20928;SDS011;21895;47.072;15.132;2023-02-21T09:14:38;10.07;;;3.70;;
20928;SDS011;21895;47.072;15.132;2023-02-21T09:17:07;13.27;;;4.43;;
20928;SDS011;21895;47.072;15.132;2023-02-21T09:19:37;19.37;;;5.70;;
20928;SDS011;21895;47.072;15.132;2023-02-21T09:22:05;20.00;;;5.23;;
20928;SDS011;21895;47.072;15.132;2023-02-21T09:24:33;13.93;;;4.97;;
20928;SDS011;21895;47.072;15.132;2023-02-21T09:27:00;15.87;;;4.30;;
20928;SDS011;21895;47.072;15.132;2023-02-21T09:29:30;19.93;;;5.50;;
20928;SDS011;21895;47.072;15.132;2023-02-21T09:32:10;17.57;;;4.80;;
20928;SDS011;21895;47.072;15.132;2023-02-21T09:34:38;16.10;;;4.67;;
20928;SDS011;21895;47.072;15.132;2023-02-21T09:37:04;18.57;;;5.17;;
20928;SDS011;21895;47.072;15.132;2023-02-21T09:39:31;17.20;;;4.67;;
20928;SDS011;21895;47.072;15.132;2023-02-21T09:41:57;13.80;;;4.37;;
20928;SDS011;21895;47.072;15.132;2023-02-21T09:44:25;12.37;;;4.37;;
20928;SDS011;21895;47.072;15.132;2023-02-21T09:46:55;14.57;;;4.40;;
20928;SDS011;21895;47.072;15.132;2023-02-21T09:49:33;15.27;;;4.22;;
20928;SDS011;21895;47.072;15.132;2023-02-21T09:52:17;17.20;;;4.20;;
20928;SDS011;21895;47.072;15.132;2023-02-21T09:54:55;16.37;;;4.17;;
20928;SDS011;21895;47.072;15.132;2023-02-21T09:57:27;16.40;;;4.53;;
20928;SDS011;21895;47.072;15.132;2023-02-21T09:59:54;42.90;;;5.03;;
20928;SDS011;21895;47.072;15.132;2023-02-21T10:02:29;19.67;;;3.22;;
20928;SDS011;21895;47.072;15.132;2023-02-21T10:20:03;6.95;;;1.80;;
20928;SDS011;21895;47.072;15.132;2023-02-21T10:22:44;3.95;;;1.67;;
20928;SDS011;21895;47.072;15.132;2023-02-21T10:25:22;4.40;;;1.40;;
20928;SDS011;21895;47.072;15.132;2023-02-21T10:27:58;2.33;;;1.40;;
20928;SDS011;21895;47.072;15.132;2023-02-21T10:30:26;2.08;;;1.10;;
20928;SDS011;21895;47.072;15.132;2023-02-21T10:33:01;3.12;;;1.55;;
20928;SDS011;21895;47.072;15.132;2023-02-21T10:35:32;4.00;;;1.00;;
20928;SDS011;21895;47.072;15.132;2023-02-21T10:38:03;3.25;;;1.20;;
20928;SDS011;21895;47.072;15.132;2023-02-21T10:40:39;3.20;;;1.25;;
20928;SDS011;21895;47.072;15.132;2023-02-21T10:56:49;2.70;;;1.60;;
20928;SDS011;21895;47.072;15.132;2023-02-21T10:59:19;2.65;;;1.00;;
20928;SDS011;21895;47.072;15.132;2023-02-21T11:01:52;8.70;;;1.40;;
20928;SDS011;21895;47.072;15.132;2023-02-21T11:04:24;2.37;;;1.20;;
20928;SDS011;21895;47.072;15.132;2023-02-21T11:07:03;3.05;;;1.05;;
20928;SDS011;21895;47.072;15.132;2023-02-21T11:09:43;3.47;;;0.90;;
20928;SDS011;21895;47.072;15.132;2023-02-21T11:17:43;3.90;;;0.80;;
20928;SDS011;21895;47.072;15.132;2023-02-21T11:20:20;1.08;;;0.80;;
20928;SDS011;21895;47.072;15.132;2023-02-21T11:22:48;4.32;;;1.20;;
20928;SDS011;21895;47.072;15.132;2023-02-21T11:31:21;5.03;;;1.30;;
20928;SDS011;21895;47.072;15.132;2023-02-21T11:33:56;3.53;;;1.12;;
20928;SDS011;21895;47.072;15.132;2023-02-21T11:36:27;2.92;;;1.17;;
20928;SDS011;21895;47.072;15.132;2023-02-21T11:39:07;3.10;;;1.12;;
20928;SDS011;21895;47.072;15.132;2023-02-21T11:41:47;3.28;;;1.23;;
20928;SDS011;21895;47.072;15.132;2023-02-21T11:45:23;3.85;;;1.25;;
20928;SDS011;21895;47.072;15.132;2023-02-21T11:48:00;3.60;;;1.23;;
20928;SDS011;21895;47.072;15.132;2023-02-21T11:50:35;3.75;;;0.98;;
20928;SDS011;21895;47.072;15.132;2023-02-21T12:03:20;3.00;;;1.23;;
20928;SDS011;21895;47.072;15.132;2023-02-21T12:09:07;2.50;;;0.80;;
20928;SDS011;21895;47.072;15.132;2023-02-21T12:12:35;4.60;;;1.12;;
20928;SDS011;21895;47.072;15.132;2023-02-21T12:15:23;2.35;;;1.00;;
20928;SDS011;21895;47.072;15.132;2023-02-21T12:20:49;1.58;;;1.10;;
20928;SDS011;21895;47.072;15.132;2023-02-21T12:27:47;4.57;;;0.82;;
20928;SDS011;21895;47.072;15.132;2023-02-21T12:33:43;0.77;;;0.70;;
20928;SDS011;21895;47.072;15.132;2023-02-21T12:36:49;1.30;;;0.82;;
20928;SDS011;21895;47.072;15.132;2023-02-21T12:44:43;1.17;;;0.70;;
20928;SDS011;21895;47.072;15.132;2023-02-21T12:50:42;0.93;;;0.65;;
20928;SDS011;21895;47.072;15.132;2023-02-21T12:53:18;1.58;;;0.75;;
20928;SDS011;21895;47.072;15.132;2023-02-21T12:56:09;1.23;;;0.50;;
20928;SDS011;21895;47.072;15.132;2023-02-21T12:58:53;2.80;;;0.50;;
20928;SDS011;21895;47.072;15.132;2023-02-21T13:03:24;4.07;;;0.47;;
20928;SDS011;21895;47.072;15.132;2023-02-21T13:07:46;0.40;;;0.40;;
20928;SDS011;21895;47.072;15.132;2023-02-21T13:10:51;1.73;;;0.50;;
20928;SDS011;21895;47.072;15.132;2023-02-21T13:13:56;0.80;;;0.60;;
20928;SDS011;21895;47.072;15.132;2023-02-21T13:16:25;1.45;;;0.75;;
20928;SDS011;21895;47.072;15.132;2023-02-21T13:18:53;2.20;;;0.60;;
20928;SDS011;21895;47.072;15.132;2023-02-21T13:26:48;0.80;;;0.40;;
20928;SDS011;21895;47.072;15.132;2023-02-21T13:32:17;3.05;;;0.60;;
20928;SDS011;21895;47.072;15.132;2023-02-21T13:34:45;0.60;;;0.50;;
20928;SDS011;21895;47.072;15.132;2023-02-21T13:37:25;0.70;;;0.55;;
20928;SDS011;21895;47.072;15.132;2023-02-21T13:40:06;6.53;;;0.68;;
20928;SDS011;21895;47.072;15.132;2023-02-21T13:42:48;6.32;;;0.82;;
20928;SDS011;21895;47.072;15.132;2023-02-21T13:45:30;1.95;;;0.68;;
20928;SDS011;21895;47.072;15.132;2023-02-21T13:51:08;0.52;;;0.50;;
20928;SDS011;21895;47.072;15.132;2023-02-21T13:54:21;0.50;;;0.40;;
20928;SDS011;21895;47.072;15.132;2023-02-21T13:56:50;2.05;;;0.50;;
20928;SDS011;21895;47.072;15.132;2023-02-21T13:59:29;1.65;;;0.40;;
20928;SDS011;21895;47.072;15.132;2023-02-21T14:05:03;2.35;;;0.50;;
20928;SDS011;21895;47.072;15.132;2023-02-21T14:07:44;1.05;;;0.50;;
20928;SDS011;21895;47.072;15.132;2023-02-21T14:10:53;1.08;;;0.40;;
20928;SDS011;21895;47.072;15.132;2023-02-21T14:14:04;1.10;;;0.47;;
20928;SDS011;21895;47.072;15.132;2023-02-21T14:16:57;0.43;;;0.43;;
20928;SDS011;21895;47.072;15.132;2023-02-21T14:22:20;1.25;;;0.50;;
20928;SDS011;21895;47.072;15.132;2023-02-21T14:25:02;2.58;;;0.60;;
20928;SDS011;21895;47.072;15.132;2023-02-21T14:27:45;0.40;;;0.40;;
20928;SDS011;21895;47.072;15.132;2023-02-21T14:30:21;0.40;;;0.40;;
20928;SDS011;21895;47.072;15.132;2023-02-21T14:32:59;0.70;;;0.50;;
20928;SDS011;21895;47.072;15.132;2023-02-21T14:35:55;0.80;;;0.40;;
20928;SDS011;21895;47.072;15.132;2023-02-21T14:38:31;2.95;;;0.68;;
20928;SDS011;21895;47.072;15.132;2023-02-21T14:41:27;0.50;;;0.50;;
20928;SDS011;21895;47.072;15.132;2023-02-21T14:58:36;0.40;;;0.40;;
20928;SDS011;21895;47.072;15.132;2023-02-21T15:01:54;5.55;;;0.40;;
20928;SDS011;21895;47.072;15.132;2023-02-21T15:06:16;1.70;;;0.70;;
20928;SDS011;21895;47.072;15.132;2023-02-21T15:08:48;8.23;;;0.62;;
20928;SDS011;21895;47.072;15.132;2023-02-21T15:11:35;0.98;;;0.50;;
20928;SDS011;21895;47.072;15.132;2023-02-21T15:22:43;0.40;;;0.40;;
20928;SDS011;21895;47.072;15.132;2023-02-21T15:25:11;0.30;;;0.30;;
20928;SDS011;21895;47.072;15.132;2023-02-21T15:31:02;3.05;;;0.50;;
20928;SDS011;21895;47.072;15.132;2023-02-21T15:33:33;1.85;;;0.50;;
20928;SDS011;21895;47.072;15.132;2023-02-21T15:36:06;0.65;;;0.65;;
20928;SDS011;21895;47.072;15.132;2023-02-21T15:39:06;2.12;;;0.70;;
20928;SDS011;21895;47.072;15.132;2023-02-21T15:41:49;6.18;;;0.90;;
20928;SDS011;21895;47.072;15.132;2023-02-21T15:44:22;4.03;;;1.58;;
20928;SDS011;21895;47.072;15.132;2023-02-21T15:47:12;3.17;;;1.60;;
20928;SDS011;21895;47.072;15.132;2023-02-21T15:57:20;9.00;;;3.97;;
20928;SDS011;21895;47.072;15.132;2023-02-21T15:59:55;10.20;;;3.33;;
20928;SDS011;21895;47.072;15.132;2023-02-21T16:02:47;7.45;;;3.37;;
20928;SDS011;21895;47.072;15.132;2023-02-21T16:05:27;7.05;;;3.03;;
20928;SDS011;21895;47.072;15.132;2023-02-21T16:08:02;14.10;;;5.97;;
20928;SDS011;21895;47.072;15.132;2023-02-21T16:10:29;6.47;;;3.40;;
20928;SDS011;21895;47.072;15.132;2023-02-21T16:12:57;6.53;;;3.12;;
20928;SDS011;21895;47.072;15.132;2023-02-21T16:15:27;7.43;;;3.30;;
20928;SDS011;21895;47.072;15.132;2023-02-21T16:17:58;12.93;;;5.28;;
20928;SDS011;21895;47.072;15.132;2023-02-21T16:20:31;15.80;;;6.82;;
20928;SDS011;21895;47.072;15.132;2023-02-21T16:27:55;15.55;;;7.12;;
20928;SDS011;21895;47.072;15.132;2023-02-21T16:30:25;13.60;;;6.13;;
20928;SDS011;21895;47.072;15.132;2023-02-21T16:32:59;14.20;;;6.32;;
20928;SDS011;21895;47.072;15.132;2023-02-21T16:35:29;18.70;;;7.10;;
20928;SDS011;21895;47.072;15.132;2023-02-21T16:37:58;18.93;;;7.07;;
20928;SDS011;21895;47.072;15.132;2023-02-21T16:40:28;15.98;;;6.62;;
20928;SDS011;21895;47.072;15.132;2023-02-21T16:43:00;13.10;;;5.23;;
20928;SDS011;21895;47.072;15.132;2023-02-21T16:45:29;11.67;;;4.33;;
20928;SDS011;21895;47.072;15.132;2023-02-21T16:48:01;7.03;;;4.07;;
20928;SDS011;21895;47.072;15.132;2023-02-21T16:50:34;16.90;;;4.20;;
20928;SDS011;21895;47.072;15.132;2023-02-21T16:53:04;9.70;;;4.33;;
20928;SDS011;21895;47.072;15.132;2023-02-21T16:55:32;12.30;;;4.50;;
20928;SDS011;21895;47.072;15.132;2023-02-21T16:58:02;18.17;;;4.40;;
20928;SDS011;21895;47.072;15.132;2023-02-21T17:00:32;18.70;;;3.97;;
20928;SDS011;21895;47.072;15.132;2023-02-21T17:03:00;11.20;;;4.73;;
20928;SDS011;21895;47.072;15.132;2023-02-21T17:05:27;16.50;;;5.10;;
20928;SDS011;21895;47.072;15.132;2023-02-21T17:07:54;21.43;;;4.80;;
20928;SDS011;21895;47.072;15.132;2023-02-21T17:10:22;8.60;;;5.23;;
20928;SDS011;21895;47.072;15.132;2023-02-21T17:12:49;13.13;;;5.63;;
20928;SDS011;21895;47.072;15.132;2023-02-21T17:15:16;13.77;;;5.47;;
20928;SDS011;21895;47.072;15.132;2023-02-21T17:17:42;20.23;;;6.40;;
20928;SDS011;21895;47.072;15.132;2023-02-21T17:20:17;15.30;;;6.30;;
20928;SDS011;21895;47.072;15.132;2023-02-21T17:22:45;17.70;;;6.10;;
20928;SDS011;21895;47.072;15.132;2023-02-21T17:25:12;19.97;;;6.37;;
20928;SDS011;21895;47.072;15.132;2023-02-21T17:27:40;14.67;;;5.87;;
20928;SDS011;21895;47.072;15.132;2023-02-21T17:30:09;16.27;;;5.27;;
20928;SDS011;21895;47.072;15.132;2023-02-21T17:32:37;15.17;;;5.00;;
20928;SDS011;21895;47.072;15.132;2023-02-21T17:35:04;13.17;;;5.27;;
20928;SDS011;21895;47.072;15.132;2023-02-21T17:37:31;16.23;;;5.37;;
20928;SDS011;21895;47.072;15.132;2023-02-21T17:39:57;15.63;;;5.67;;
20928;SDS011;21895;47.072;15.132;2023-02-21T17:42:24;16.37;;;5.07;;
20928;SDS011;21895;47.072;15.132;2023-02-21T17:44:50;12.93;;;4.87;;
20928;SDS011;21895;47.072;15.132;2023-02-21T17:47:18;9.13;;;4.67;;
20928;SDS011;21895;47.072;15.132;2023-02-21T17:49:47;8.27;;;4.57;;
20928;SDS011;21895;47.072;15.132;2023-02-21T17:52:15;12.30;;;4.93;;
20928;SDS011;21895;47.072;15.132;2023-02-21T17:54:42;15.00;;;5.03;;
20928;SDS011;21895;47.072;15.132;2023-02-21T17:57:09;13.70;;;5.23;;